createdAt,value
2022-12-25T00:01:45.375Z,6.05
2022-12-25T00:04:19.210Z,6.00
2022-12-25T00:06:52.032Z,6.08
2022-12-25T00:09:22.574Z,6.01
2022-12-25T00:11:58.310Z,5.99
2022-12-25T00:14:35.022Z,5.95
2022-12-25T00:17:10.673Z,6.04
2022-12-25T00:19:42.755Z,6.06
2022-12-25T00:22:24.488Z,6.12
2022-12-25T00:24:56.252Z,6.08
2022-12-25T00:27:34.873Z,6.24
2022-12-25T00:30:07.046Z,6.21
2022-12-25T00:32:46.403Z,6.22
2022-12-25T00:35:32.478Z,6.26
2022-12-25T00:38:10.842Z,6.34
2022-12-25T00:40:51.475Z,6.32
2022-12-25T00:43:24.275Z,6.36
2022-12-25T00:46:02.139Z,6.36
2022-12-25T00:48:37.726Z,6.20
2022-12-25T00:54:44.868Z,6.06
2022-12-25T00:57:20.500Z,6.00
2022-12-25T01:00:17.793Z,6.06
2022-12-25T01:05:36.948Z,6.15
2022-12-25T01:14:48.566Z,5.99
2022-12-25T01:17:31.399Z,6.02
2022-12-25T01:20:09.399Z,6.02
2022-12-25T01:22:51.627Z,5.98
2022-12-25T01:25:34.195Z,5.81
2022-12-25T01:28:05.171Z,5.97
2022-12-25T01:30:41.964Z,6.03
2022-12-25T01:33:21.443Z,6.01
2022-12-25T01:35:55.311Z,6.02
2022-12-25T01:38:24.821Z,5.94
2022-12-25T01:40:57.353Z,5.99
2022-12-25T01:43:28.168Z,6.03
2022-12-25T01:46:06.411Z,5.98
2022-12-25T01:48:46.521Z,5.89
2022-12-25T01:51:40.276Z,5.92
2022-12-25T01:54:32.468Z,5.87
2022-12-25T01:57:18.480Z,5.93
2022-12-25T02:00:11.831Z,5.95
2022-12-25T02:02:56.529Z,5.98
2022-12-25T02:05:39.060Z,6.10
2022-12-25T02:08:30.054Z,6.01
2022-12-25T02:11:39.049Z,5.98
2022-12-25T02:14:25.396Z,5.99
2022-12-25T02:17:09.226Z,5.95
2022-12-25T02:20:17.503Z,5.91
2022-12-25T02:23:24.903Z,5.96
2022-12-25T02:26:24.596Z,5.93
2022-12-25T02:29:22.953Z,5.97
2022-12-25T02:32:22.265Z,5.92
2022-12-25T02:35:00.102Z,6.05
2022-12-25T02:37:43.894Z,6.27
2022-12-25T02:40:27.708Z,6.41
2022-12-25T02:43:29.160Z,6.58
2022-12-25T02:46:37.585Z,6.69
2022-12-25T02:49:36.989Z,6.56
2022-12-25T02:52:34.569Z,6.57
2022-12-25T02:59:02.851Z,6.51
2022-12-25T03:12:59.159Z,6.54
2022-12-25T03:15:51.433Z,6.52
2022-12-25T03:18:38.048Z,6.39
2022-12-25T03:21:35.750Z,6.48
2022-12-25T03:24:22.848Z,6.35
2022-12-25T03:27:08.064Z,6.17
2022-12-25T03:30:29.200Z,6.06
2022-12-25T03:40:05.445Z,6.20
2022-12-25T03:53:19.879Z,6.20
2022-12-25T04:05:48.871Z,6.27
2022-12-25T04:08:35.170Z,6.28
2022-12-25T04:11:28.123Z,6.27
2022-12-25T04:14:17.467Z,6.29
2022-12-25T04:17:04.785Z,6.32
2022-12-25T04:19:51.155Z,6.24
2022-12-25T04:22:38.621Z,6.27
2022-12-25T04:25:25.347Z,6.29
2022-12-25T04:28:13.392Z,6.33
2022-12-25T04:31:09.824Z,6.39
2022-12-25T04:34:00.372Z,6.45
2022-12-25T04:36:36.805Z,6.32
2022-12-25T04:45:46.171Z,6.34
2022-12-25T04:48:21.965Z,6.38
2022-12-25T04:50:53.821Z,6.37
2022-12-25T04:53:27.523Z,6.32
2022-12-25T04:56:10.706Z,6.35
2022-12-25T04:58:41.827Z,6.36
2022-12-25T05:01:14.099Z,6.40
2022-12-25T05:03:44.478Z,6.48
2022-12-25T05:09:04.951Z,6.70
2022-12-25T05:11:39.073Z,6.70
2022-12-25T05:14:18.897Z,6.80
2022-12-25T05:16:55.183Z,6.87
2022-12-25T05:19:26.095Z,6.83
2022-12-25T05:21:57.163Z,6.87
2022-12-25T05:24:28.425Z,6.99
2022-12-25T05:27:00.264Z,7.02
2022-12-25T05:29:29.747Z,7.04
2022-12-25T05:32:00.183Z,7.17
2022-12-25T05:34:33.305Z,7.14
2022-12-25T05:37:02.840Z,7.22
2022-12-25T05:39:33.897Z,7.17
2022-12-25T05:42:06.631Z,7.14
2022-12-25T05:44:36.955Z,7.27
2022-12-25T05:47:07.832Z,7.27
2022-12-25T05:49:41.160Z,7.18
2022-12-25T05:52:11.576Z,7.31
2022-12-25T05:54:42.272Z,7.43
2022-12-25T05:57:15.262Z,7.26
2022-12-25T05:59:44.524Z,7.32
2022-12-25T06:02:15.370Z,7.31
2022-12-25T06:04:47.751Z,7.30
2022-12-25T06:07:20.351Z,7.30
2022-12-25T06:09:50.938Z,7.28
2022-12-25T06:12:24.200Z,7.19
2022-12-25T06:14:53.494Z,7.28
2022-12-25T06:17:23.318Z,7.37
2022-12-25T06:19:55.994Z,7.34
2022-12-25T06:22:27.423Z,7.42
2022-12-25T06:24:58.787Z,7.48
2022-12-25T06:27:34.733Z,7.36
2022-12-25T06:30:07.339Z,7.47
2022-12-25T06:32:39.777Z,7.41
2022-12-25T06:35:21.035Z,7.16
2022-12-25T06:38:04.314Z,7.07
2022-12-25T06:40:41.622Z,7.25
2022-12-25T06:43:26.065Z,7.25
2022-12-25T06:46:01.339Z,7.26
2022-12-25T06:48:57.748Z,7.27
2022-12-25T06:51:45.051Z,7.38
2022-12-25T06:54:35.055Z,7.47
2022-12-25T06:57:06.190Z,7.43
2022-12-25T06:59:38.842Z,7.39
2022-12-25T07:02:10.281Z,7.41
2022-12-25T07:04:48.348Z,7.40
2022-12-25T07:07:25.534Z,7.39
2022-12-25T07:09:57.388Z,7.34
2022-12-25T07:12:29.555Z,7.47
2022-12-25T07:15:03.401Z,7.47
2022-12-25T07:17:32.544Z,7.47
2022-12-25T07:20:05.848Z,7.48
2022-12-25T07:25:24.829Z,7.46
2022-12-25T07:31:21.434Z,7.27
2022-12-25T07:33:57.706Z,7.32
2022-12-25T07:36:27.767Z,7.30
2022-12-25T07:38:58.407Z,7.43
2022-12-25T07:41:27.085Z,7.39
2022-12-25T07:44:15.294Z,7.41
2022-12-25T07:46:46.530Z,7.44
2022-12-25T07:49:16.383Z,7.46
2022-12-25T07:51:53.690Z,7.47
2022-12-25T07:54:22.991Z,7.50
2022-12-25T07:56:55.453Z,7.61
2022-12-25T07:59:25.388Z,7.67
2022-12-25T08:01:57.111Z,7.60
2022-12-25T08:04:25.994Z,7.56
2022-12-25T08:06:55.098Z,7.56
2022-12-25T08:09:26.946Z,7.62
2022-12-25T08:12:00.366Z,7.65
2022-12-25T08:14:34.906Z,7.67
2022-12-25T08:17:07.150Z,7.72
2022-12-25T08:19:38.494Z,7.78
2022-12-25T08:22:07.091Z,7.85
2022-12-25T08:24:36.038Z,7.91
2022-12-25T08:27:06.287Z,7.91
2022-12-25T08:29:37.242Z,7.96
2022-12-25T08:32:10.315Z,8.17
2022-12-25T08:34:39.499Z,8.32
2022-12-25T08:37:10.785Z,8.44
2022-12-25T08:39:42.979Z,8.30
2022-12-25T08:42:15.804Z,8.66
2022-12-25T08:44:45.506Z,8.52
2022-12-25T08:47:22.451Z,8.54
2022-12-25T08:49:53.080Z,8.49
2022-12-25T08:52:21.907Z,8.45
2022-12-25T08:54:52.432Z,8.43
2022-12-25T08:57:22.721Z,8.49
2022-12-25T08:59:53.600Z,8.41
2022-12-25T09:02:29.666Z,8.46
2022-12-25T09:05:01.044Z,8.43
2022-12-25T09:07:30.822Z,8.54
2022-12-25T09:10:11.923Z,8.40
2022-12-25T09:12:48.291Z,8.52
2022-12-25T09:15:19.145Z,8.49
2022-12-25T09:17:53.398Z,8.72
2022-12-25T09:20:27.893Z,8.77
2022-12-25T09:22:57.212Z,8.81
2022-12-25T09:25:29.212Z,8.97
2022-12-25T09:28:10.959Z,9.01
2022-12-25T09:30:43.349Z,9.04
2022-12-25T09:33:23.420Z,8.99
2022-12-25T09:36:00.751Z,8.99
2022-12-25T09:38:34.653Z,8.89
2022-12-25T09:41:22.854Z,9.20
2022-12-25T09:44:05.255Z,9.33
2022-12-25T09:46:45.396Z,9.21
2022-12-25T09:49:36.545Z,9.35
2022-12-25T09:52:11.828Z,9.25
2022-12-25T09:54:50.529Z,9.34
2022-12-25T09:57:23.406Z,9.45
2022-12-25T09:59:59.489Z,9.48
2022-12-25T10:03:05.445Z,9.42
2022-12-25T10:06:09.370Z,9.15
2022-12-25T10:09:03.598Z,9.26
2022-12-25T10:11:59.314Z,9.26
2022-12-25T10:14:40.222Z,9.25
2022-12-25T10:17:27.030Z,9.25
2022-12-25T10:20:08.073Z,9.35
2022-12-25T10:22:42.558Z,9.33
2022-12-25T10:25:22.887Z,9.37
2022-12-25T10:31:04.090Z,9.47
2022-12-25T10:33:34.369Z,9.73
2022-12-25T10:36:04.648Z,9.82
2022-12-25T10:38:34.216Z,9.97
2022-12-25T10:41:19.898Z,9.85
2022-12-25T10:43:52.163Z,9.77
2022-12-25T10:46:23.863Z,9.88
2022-12-25T10:48:55.346Z,9.77
2022-12-25T10:51:32.638Z,9.90
2022-12-25T10:54:03.975Z,9.88
2022-12-25T10:56:34.169Z,9.95
2022-12-25T10:59:07.631Z,10.09
2022-12-25T11:01:51.103Z,9.96
2022-12-25T11:04:34.985Z,9.69
2022-12-25T11:07:08.542Z,9.74
2022-12-25T11:09:37.157Z,9.67
2022-12-25T11:12:08.352Z,9.76
2022-12-25T11:14:39.284Z,9.91
2022-12-25T11:17:13.896Z,9.90
2022-12-25T11:19:56.310Z,9.67
2022-12-25T11:22:27.039Z,9.84
2022-12-25T11:25:00.772Z,9.69
2022-12-25T11:27:35.738Z,9.73
2022-12-25T11:30:14.282Z,9.95
2022-12-25T11:33:00.626Z,10.06
2022-12-25T11:35:35.351Z,10.01
2022-12-25T11:38:06.123Z,10.27
2022-12-25T11:40:49.239Z,10.50
2022-12-25T11:43:24.552Z,10.67
2022-12-25T11:45:59.820Z,10.45
2022-12-25T11:48:39.527Z,10.28
2022-12-25T11:51:12.030Z,10.16
2022-12-25T11:53:48.744Z,10.09
2022-12-25T11:56:20.074Z,10.25
2022-12-25T11:58:52.804Z,10.20
2022-12-25T12:01:39.889Z,10.21
2022-12-25T12:04:25.925Z,10.14
2022-12-25T12:07:06.681Z,10.02
2022-12-25T12:09:44.799Z,9.98
2022-12-25T12:12:19.451Z,10.03
2022-12-25T12:14:56.964Z,10.08
2022-12-25T12:17:24.964Z,9.96
2022-12-25T12:19:52.793Z,9.84
2022-12-25T12:22:24.248Z,9.85
2022-12-25T12:24:57.177Z,9.91
2022-12-25T12:27:28.939Z,9.85
2022-12-25T12:30:01.099Z,9.85
2022-12-25T12:32:39.167Z,9.77
2022-12-25T12:35:10.901Z,9.79
2022-12-25T12:37:41.850Z,9.68
2022-12-25T12:40:25.419Z,9.73
2022-12-25T12:42:53.965Z,9.66
2022-12-25T12:45:27.200Z,9.63
2022-12-25T12:47:55.242Z,9.68
2022-12-25T12:50:31.567Z,9.76
2022-12-25T12:53:01.066Z,9.75
2022-12-25T12:55:30.809Z,9.79
2022-12-25T12:58:00.828Z,9.80
2022-12-25T13:00:41.688Z,9.83
2022-12-25T13:03:37.549Z,9.89
2022-12-25T13:06:14.180Z,9.87
2022-12-25T13:08:58.446Z,9.78
2022-12-25T13:11:28.624Z,9.69
2022-12-25T13:14:01.659Z,9.69
2022-12-25T13:16:35.312Z,9.66
2022-12-25T13:19:07.036Z,9.52
2022-12-25T13:21:36.128Z,9.62
2022-12-25T13:24:08.910Z,9.52
2022-12-25T13:26:38.891Z,9.42
2022-12-25T13:29:11.431Z,9.38
2022-12-25T13:31:41.843Z,9.31
2022-12-25T13:34:23.363Z,9.29
2022-12-25T13:36:51.363Z,9.29
2022-12-25T13:39:20.000Z,9.25
2022-12-25T13:42:10.068Z,9.24
2022-12-25T13:44:45.522Z,9.16
2022-12-25T13:47:24.715Z,9.22
2022-12-25T13:49:54.124Z,9.21
2022-12-25T13:52:25.723Z,9.25
2022-12-25T13:54:58.076Z,9.25
2022-12-25T13:57:30.331Z,9.20
2022-12-25T13:59:58.924Z,9.25
2022-12-25T14:02:35.481Z,9.30
2022-12-25T14:05:03.782Z,9.27
2022-12-25T14:07:31.832Z,9.20
2022-12-25T14:10:04.573Z,9.18
2022-12-25T14:12:33.931Z,9.20
2022-12-25T14:15:02.194Z,9.21
2022-12-25T14:17:31.497Z,9.16
2022-12-25T14:20:07.918Z,9.15
2022-12-25T14:22:38.569Z,9.14
2022-12-25T14:25:19.559Z,9.15
2022-12-25T14:27:57.091Z,9.24
2022-12-25T14:30:30.879Z,9.17
2022-12-25T14:33:02.701Z,9.14
2022-12-25T14:35:31.727Z,9.23
2022-12-25T14:38:01.168Z,9.39
2022-12-25T14:40:31.627Z,9.43
2022-12-25T14:43:02.498Z,9.47
2022-12-25T14:45:34.233Z,9.47
2022-12-25T14:48:25.259Z,9.39
2022-12-25T14:51:00.253Z,9.40
2022-12-25T14:53:37.401Z,9.28
2022-12-25T14:56:07.166Z,9.22
2022-12-25T14:58:42.615Z,9.20
2022-12-25T15:01:22.639Z,9.11
2022-12-25T15:03:52.433Z,9.05
2022-12-25T15:06:22.575Z,9.03
2022-12-25T15:08:58.666Z,9.07
2022-12-25T15:11:26.985Z,9.10
2022-12-25T15:13:55.044Z,9.12
2022-12-25T15:16:25.771Z,9.08
2022-12-25T15:18:55.973Z,9.06
2022-12-25T15:21:27.251Z,9.07
2022-12-25T15:23:56.198Z,9.08
2022-12-25T15:26:25.156Z,9.05
2022-12-25T15:28:54.704Z,9.07
2022-12-25T15:31:26.176Z,9.09
2022-12-25T15:33:59.377Z,9.08
2022-12-25T15:36:28.291Z,9.04
2022-12-25T15:38:56.770Z,9.03
2022-12-25T15:41:43.785Z,9.08
2022-12-25T15:44:13.489Z,9.14
2022-12-25T15:46:42.115Z,9.15
2022-12-25T15:49:12.218Z,9.11
2022-12-25T15:51:40.890Z,9.20
2022-12-25T15:54:15.258Z,9.16
2022-12-25T15:56:45.659Z,9.20
2022-12-25T15:59:15.900Z,9.21
2022-12-25T16:01:48.052Z,9.10
2022-12-25T16:04:18.033Z,9.09
2022-12-25T16:06:46.271Z,9.08
2022-12-25T16:09:16.342Z,9.05
2022-12-25T16:11:44.771Z,9.04
2022-12-25T16:14:12.915Z,9.04
2022-12-25T16:16:41.137Z,9.01
2022-12-25T16:19:09.051Z,8.96
2022-12-25T16:21:42.302Z,8.97
2022-12-25T16:24:10.757Z,9.00
2022-12-25T16:26:38.661Z,9.01
2022-12-25T16:29:08.154Z,9.02
2022-12-25T16:31:36.642Z,8.98
2022-12-25T16:34:04.679Z,8.98
2022-12-25T16:36:32.577Z,8.95
2022-12-25T16:39:01.788Z,8.92
2022-12-25T16:41:29.759Z,8.93
2022-12-25T16:43:57.504Z,8.98
2022-12-25T16:46:25.302Z,8.97
2022-12-25T16:48:53.024Z,8.98
2022-12-25T16:51:22.057Z,8.98
2022-12-25T16:53:49.979Z,9.00
2022-12-25T16:56:25.302Z,9.08
2022-12-25T16:58:53.293Z,9.17
2022-12-25T17:01:23.122Z,9.15
2022-12-25T17:03:52.404Z,9.09
2022-12-25T17:06:22.987Z,8.92
2022-12-25T17:08:52.058Z,9.09
2022-12-25T17:11:26.185Z,9.10
2022-12-25T17:13:54.487Z,9.12
2022-12-25T17:16:24.782Z,9.19
2022-12-25T17:18:55.268Z,9.20
2022-12-25T17:21:23.175Z,9.23
2022-12-25T17:23:55.322Z,9.18
2022-12-25T17:26:27.795Z,9.16
2022-12-25T17:28:56.361Z,9.21
2022-12-25T17:31:24.654Z,9.24
2022-12-25T17:33:52.639Z,9.25
2022-12-25T17:36:22.275Z,9.26
2022-12-25T17:38:54.942Z,9.27
2022-12-25T17:41:22.982Z,9.30
2022-12-25T17:43:52.239Z,9.33
2022-12-25T17:46:22.196Z,9.32
2022-12-25T17:48:51.136Z,9.34
2022-12-25T17:51:22.271Z,9.56
2022-12-25T17:53:52.088Z,9.55
2022-12-25T17:56:20.812Z,9.53
2022-12-25T17:58:52.785Z,9.55
2022-12-25T18:01:21.368Z,9.60
2022-12-25T18:03:49.987Z,9.57
2022-12-25T18:06:19.646Z,9.56
2022-12-25T18:08:48.540Z,9.54
2022-12-25T18:11:18.956Z,9.67
2022-12-25T18:13:49.931Z,9.78
2022-12-25T18:16:21.127Z,9.65
2022-12-25T18:18:52.221Z,9.83
2022-12-25T18:21:21.813Z,9.66
2022-12-25T18:23:50.324Z,9.63
2022-12-25T18:26:18.820Z,9.65
2022-12-25T18:28:46.819Z,9.72
2022-12-25T18:31:21.208Z,9.76
2022-12-25T18:33:49.721Z,9.78
2022-12-25T18:36:21.129Z,9.75
2022-12-25T18:38:48.983Z,9.82
2022-12-25T18:41:17.252Z,9.85
2022-12-25T18:43:53.159Z,9.71
2022-12-25T18:46:26.052Z,9.73
2022-12-25T18:48:54.934Z,9.77
2022-12-25T18:51:23.553Z,9.71
2022-12-25T18:53:52.087Z,9.58
2022-12-25T18:56:23.621Z,9.72
2022-12-25T18:58:51.611Z,9.67
2022-12-25T19:01:22.687Z,9.69
2022-12-25T19:03:58.672Z,9.82
2022-12-25T19:06:34.490Z,9.73
2022-12-25T19:09:09.434Z,9.89
2022-12-25T19:11:44.019Z,9.80
2022-12-25T19:14:14.716Z,9.81
2022-12-25T19:16:45.850Z,9.77
2022-12-25T19:19:15.992Z,9.78
2022-12-25T19:21:47.470Z,9.77
2022-12-25T19:24:15.498Z,9.85
2022-12-25T19:26:43.931Z,9.97
2022-12-25T19:29:13.013Z,10.05
2022-12-25T19:31:41.833Z,10.03
2022-12-25T19:34:12.727Z,10.12
2022-12-25T19:36:42.313Z,10.01
2022-12-25T19:39:12.746Z,10.10
2022-12-25T19:41:40.824Z,10.23
2022-12-25T19:44:09.542Z,10.25
2022-12-25T19:46:40.549Z,10.14
2022-12-25T19:49:11.174Z,10.27
2022-12-25T19:51:42.326Z,10.07
2022-12-25T19:54:14.848Z,10.04
2022-12-25T19:56:43.443Z,10.11
2022-12-25T19:59:14.604Z,10.11
2022-12-25T20:01:43.449Z,10.10
2022-12-25T20:04:14.788Z,10.17
2022-12-25T20:06:46.231Z,10.11
2022-12-25T20:09:20.707Z,10.12
2022-12-25T20:11:49.550Z,10.17
2022-12-25T20:14:18.124Z,10.26
2022-12-25T20:16:46.536Z,10.20
2022-12-25T20:19:14.915Z,10.28
2022-12-25T20:21:43.104Z,10.24
2022-12-25T20:24:11.268Z,10.42
2022-12-25T20:26:45.334Z,10.32
2022-12-25T20:29:16.435Z,10.23
2022-12-25T20:31:44.647Z,10.26
2022-12-25T20:34:13.129Z,10.28
2022-12-25T20:36:43.257Z,10.33
2022-12-25T20:39:13.077Z,10.44
2022-12-25T20:41:42.709Z,10.35
2022-12-25T20:44:13.362Z,10.33
2022-12-25T20:46:41.766Z,10.38
2022-12-25T20:49:10.029Z,10.47
2022-12-25T20:51:38.210Z,10.48
2022-12-25T20:54:07.569Z,10.47
2022-12-25T20:56:36.357Z,10.65
2022-12-25T20:59:08.172Z,10.57
2022-12-25T21:01:36.495Z,10.58
2022-12-25T21:04:05.152Z,10.49
2022-12-25T21:06:33.261Z,10.49
2022-12-25T21:09:01.535Z,10.51
2022-12-25T21:11:32.006Z,10.47
2022-12-25T21:14:00.358Z,10.40
2022-12-25T21:16:32.765Z,10.57
2022-12-25T21:19:00.987Z,10.49
2022-12-25T21:21:29.399Z,10.51
2022-12-25T21:23:58.001Z,10.58
2022-12-25T21:26:28.049Z,10.55
2022-12-25T21:29:00.209Z,10.50
2022-12-25T21:31:30.774Z,10.51
2022-12-25T21:33:58.229Z,10.40
2022-12-25T21:36:31.557Z,10.45
2022-12-25T21:39:01.331Z,10.49
2022-12-25T21:41:31.849Z,10.41
2022-12-25T21:44:00.750Z,10.46
2022-12-25T21:46:30.680Z,10.41
2022-12-25T21:48:59.764Z,10.40
2022-12-25T21:51:47.626Z,10.33
2022-12-25T21:54:16.929Z,10.39
2022-12-25T21:56:47.214Z,10.37
2022-12-25T21:59:18.026Z,10.44
2022-12-25T22:01:48.620Z,10.49
2022-12-25T22:04:18.175Z,10.50
2022-12-25T22:07:04.355Z,10.45
2022-12-25T22:09:36.458Z,10.56
2022-12-25T22:12:22.555Z,10.40
2022-12-25T22:14:56.209Z,10.47
2022-12-25T22:17:45.730Z,10.57
2022-12-25T22:20:16.458Z,10.71
2022-12-25T22:22:44.957Z,10.58
2022-12-25T22:25:14.287Z,10.69
2022-12-25T22:27:44.108Z,10.62
2022-12-25T22:30:15.085Z,10.67
2022-12-25T22:32:44.779Z,10.75
2022-12-25T22:35:13.116Z,10.74
2022-12-25T22:37:42.648Z,10.67
2022-12-25T22:40:13.136Z,10.68
2022-12-25T22:42:41.920Z,10.69
2022-12-25T22:45:12.410Z,10.62
2022-12-25T22:47:42.378Z,10.61
2022-12-25T22:50:19.062Z,10.59
2022-12-25T22:52:49.007Z,10.67
2022-12-25T22:55:20.190Z,10.61
2022-12-25T22:57:49.367Z,10.58
2022-12-25T23:00:21.394Z,10.68
2022-12-25T23:02:50.106Z,10.62
2022-12-25T23:05:20.119Z,10.65
2022-12-25T23:07:51.860Z,10.64
2022-12-25T23:10:19.945Z,10.76
2022-12-25T23:13:17.155Z,10.70
2022-12-25T23:15:46.092Z,10.73
2022-12-25T23:18:46.066Z,10.77
2022-12-25T23:21:34.557Z,10.61
2022-12-25T23:24:20.095Z,10.69
2022-12-25T23:26:48.173Z,10.76
2022-12-25T23:29:38.980Z,10.75
2022-12-25T23:32:09.865Z,10.74
2022-12-25T23:34:40.266Z,10.81
2022-12-25T23:37:10.200Z,10.76
2022-12-25T23:39:38.631Z,10.84
2022-12-25T23:42:06.871Z,10.64
2022-12-25T23:44:35.252Z,10.79
2022-12-25T23:47:03.614Z,10.79
2022-12-25T23:49:32.172Z,10.77
2022-12-25T23:52:00.146Z,10.83
2022-12-25T23:54:32.111Z,10.84
2022-12-25T23:57:00.837Z,10.84
2022-12-25T23:59:30.390Z,10.84
